sensor_id;sensor_type;location;lat;lon;timestamp;temperature;humidity
67868;SHT31;54672;46.096;14.470;2023-11-22T00:01:03;4.10;99.99
67868;SHT31;54672;46.096;14.470;2023-11-22T00:03:28;4.13;99.99
67868;SHT31;54672;46.096;14.470;2023-11-22T00:05:54;4.15;99.99
67868;SHT31;54672;46.096;14.470;2023-11-22T00:08:19;4.17;99.99
67868;SHT31;54672;46.096;14.470;2023-11-22T00:10:45;4.13;99.99
67868;SHT31;54672;46.096;14.470;2023-11-22T00:13:10;4.04;99.99
67868;SHT31;54672;46.096;14.470;2023-11-22T00:15:37;4.10;99.99
67868;SHT31;54672;46.096;14.470;2023-11-22T00:18:02;4.15;99.99
67868;SHT31;54672;46.096;14.470;2023-11-22T00:20:31;4.15;99.99
67868;SHT31;54672;46.096;14.470;2023-11-22T00:22:59;4.15;99.99
67868;SHT31;54672;46.096;14.470;2023-11-22T00:25:24;4.20;99.99
67868;SHT31;54672;46.096;14.470;2023-11-22T00:27:50;4.18;99.99
67868;SHT31;54672;46.096;14.470;2023-11-22T00:30:15;4.17;99.99
67868;SHT31;54672;46.096;14.470;2023-11-22T00:32:40;4.22;99.99
67868;SHT31;54672;46.096;14.470;2023-11-22T00:35:07;4.17;99.99
67868;SHT31;54672;46.096;14.470;2023-11-22T00:37:35;4.18;99.99
67868;SHT31;54672;46.096;14.470;2023-11-22T00:40:02;4.08;99.99
67868;SHT31;54672;46.096;14.470;2023-11-22T00:42:39;3.89;99.99
67868;SHT31;54672;46.096;14.470;2023-11-22T00:45:07;3.94;99.99
67868;SHT31;54672;46.096;14.470;2023-11-22T00:47:33;3.97;99.99
67868;SHT31;54672;46.096;14.470;2023-11-22T00:49:59;3.87;99.99
67868;SHT31;54672;46.096;14.470;2023-11-22T00:52:24;3.70;99.99
67868;SHT31;54672;46.096;14.470;2023-11-22T00:54:50;3.74;99.99
67868;SHT31;54672;46.096;14.470;2023-11-22T00:57:16;3.73;99.99
67868;SHT31;54672;46.096;14.470;2023-11-22T00:59:42;3.73;99.99
67868;SHT31;54672;46.096;14.470;2023-11-22T01:02:07;3.74;99.99
67868;SHT31;54672;46.096;14.470;2023-11-22T01:04:34;3.74;99.99
67868;SHT31;54672;46.096;14.470;2023-11-22T01:07:02;3.67;99.99
67868;SHT31;54672;46.096;14.470;2023-11-22T01:09:29;3.60;99.99
67868;SHT31;54672;46.096;14.470;2023-11-22T01:11:55;3.58;99.99
67868;SHT31;54672;46.096;14.470;2023-11-22T01:14:21;3.58;99.99
67868;SHT31;54672;46.096;14.470;2023-11-22T01:16:47;3.55;99.99
67868;SHT31;54672;46.096;14.470;2023-11-22T01:19:13;3.53;99.99
67868;SHT31;54672;46.096;14.470;2023-11-22T01:21:38;3.53;99.99
67868;SHT31;54672;46.096;14.470;2023-11-22T01:24:04;3.51;99.99
67868;SHT31;54672;46.096;14.470;2023-11-22T01:26:29;3.49;99.99
67868;SHT31;54672;46.096;14.470;2023-11-22T01:28:55;3.48;99.99
67868;SHT31;54672;46.096;14.470;2023-11-22T01:31:21;3.39;99.99
67868;SHT31;54672;46.096;14.470;2023-11-22T01:33:47;3.43;99.99
67868;SHT31;54672;46.096;14.470;2023-11-22T01:36:13;3.35;99.99
67868;SHT31;54672;46.096;14.470;2023-11-22T01:38:40;3.45;99.99
67868;SHT31;54672;46.096;14.470;2023-11-22T01:41:05;3.51;99.99
67868;SHT31;54672;46.096;14.470;2023-11-22T01:43:31;3.55;99.99
67868;SHT31;54672;46.096;14.470;2023-11-22T01:45:56;3.43;99.99
67868;SHT31;54672;46.096;14.470;2023-11-22T01:48:22;3.36;99.99
67868;SHT31;54672;46.096;14.470;2023-11-22T01:50:48;3.35;99.99
67868;SHT31;54672;46.096;14.470;2023-11-22T01:53:14;3.28;99.99
67868;SHT31;54672;46.096;14.470;2023-11-22T01:55:42;3.25;99.99
67868;SHT31;54672;46.096;14.470;2023-11-22T01:58:08;3.21;99.99
67868;SHT31;54672;46.096;14.470;2023-11-22T02:00:45;3.23;99.99
67868;SHT31;54672;46.096;14.470;2023-11-22T02:03:13;3.19;99.99
67868;SHT31;54672;46.096;14.470;2023-11-22T02:05:42;3.19;99.99
67868;SHT31;54672;46.096;14.470;2023-11-22T02:08:11;3.11;99.99
67868;SHT31;54672;46.096;14.470;2023-11-22T02:10:36;3.05;99.99
67868;SHT31;54672;46.096;14.470;2023-11-22T02:13:03;3.01;99.99
67868;SHT31;54672;46.096;14.470;2023-11-22T02:15:30;3.02;99.99
67868;SHT31;54672;46.096;14.470;2023-11-22T02:17:56;3.12;99.99
67868;SHT31;54672;46.096;14.470;2023-11-22T02:20:22;3.04;99.99
67868;SHT31;54672;46.096;14.470;2023-11-22T02:22:48;2.97;99.99
67868;SHT31;54672;46.096;14.470;2023-11-22T02:25:13;2.95;99.99
67868;SHT31;54672;46.096;14.470;2023-11-22T02:27:40;2.77;99.99
67868;SHT31;54672;46.096;14.470;2023-11-22T02:30:08;2.73;99.99
67868;SHT31;54672;46.096;14.470;2023-11-22T02:32:34;2.71;99.99
67868;SHT31;54672;46.096;14.470;2023-11-22T02:34:59;2.61;99.99
67868;SHT31;54672;46.096;14.470;2023-11-22T02:37:26;2.61;99.99
67868;SHT31;54672;46.096;14.470;2023-11-22T02:40:00;2.64;99.99
67868;SHT31;54672;46.096;14.470;2023-11-22T02:42:29;2.54;99.99
67868;SHT31;54672;46.096;14.470;2023-11-22T02:44:55;2.50;99.99
67868;SHT31;54672;46.096;14.470;2023-11-22T02:47:20;2.53;99.99
67868;SHT31;54672;46.096;14.470;2023-11-22T02:49:46;2.49;99.99
67868;SHT31;54672;46.096;14.470;2023-11-22T02:52:11;2.52;99.99
67868;SHT31;54672;46.096;14.470;2023-11-22T02:54:43;2.56;99.99
67868;SHT31;54672;46.096;14.470;2023-11-22T02:57:09;2.50;99.99
67868;SHT31;54672;46.096;14.470;2023-11-22T02:59:34;2.49;99.99
67868;SHT31;54672;46.096;14.470;2023-11-22T03:02:00;2.33;99.99
67868;SHT31;54672;46.096;14.470;2023-11-22T03:04:27;2.29;99.99
67868;SHT31;54672;46.096;14.470;2023-11-22T03:06:53;2.23;99.99
67868;SHT31;54672;46.096;14.470;2023-11-22T03:09:19;2.28;99.99
67868;SHT31;54672;46.096;14.470;2023-11-22T03:11:44;2.22;99.99
67868;SHT31;54672;46.096;14.470;2023-11-22T03:14:09;2.22;99.99
67868;SHT31;54672;46.096;14.470;2023-11-22T03:16:39;2.40;99.99
67868;SHT31;54672;46.096;14.470;2023-11-22T03:19:04;2.46;99.99
67868;SHT31;54672;46.096;14.470;2023-11-22T03:21:29;2.26;99.99
67868;SHT31;54672;46.096;14.470;2023-11-22T03:23:55;2.28;99.99
67868;SHT31;54672;46.096;14.470;2023-11-22T03:26:21;2.28;99.99
67868;SHT31;54672;46.096;14.470;2023-11-22T03:28:46;2.15;99.99
67868;SHT31;54672;46.096;14.470;2023-11-22T03:31:12;2.18;99.99
67868;SHT31;54672;46.096;14.470;2023-11-22T03:33:39;2.11;99.99
67868;SHT31;54672;46.096;14.470;2023-11-22T03:36:05;2.11;99.99
67868;SHT31;54672;46.096;14.470;2023-11-22T03:38:30;2.05;99.99
67868;SHT31;54672;46.096;14.470;2023-11-22T03:40:56;2.21;99.99
67868;SHT31;54672;46.096;14.470;2023-11-22T03:43:21;2.18;99.99
67868;SHT31;54672;46.096;14.470;2023-11-22T03:45:47;2.12;99.99
67868;SHT31;54672;46.096;14.470;2023-11-22T03:48:12;2.37;99.99
67868;SHT31;54672;46.096;14.470;2023-11-22T03:50:37;2.26;99.99
67868;SHT31;54672;46.096;14.470;2023-11-22T03:53:03;2.18;99.99
67868;SHT31;54672;46.096;14.470;2023-11-22T03:55:28;2.28;99.99
67868;SHT31;54672;46.096;14.470;2023-11-22T03:57:54;2.19;99.99
67868;SHT31;54672;46.096;14.470;2023-11-22T04:00:20;2.21;99.99
67868;SHT31;54672;46.096;14.470;2023-11-22T04:02:45;2.23;99.99
67868;SHT31;54672;46.096;14.470;2023-11-22T04:05:11;2.13;99.99
67868;SHT31;54672;46.096;14.470;2023-11-22T04:07:37;1.92;99.99
67868;SHT31;54672;46.096;14.470;2023-11-22T04:10:04;1.91;99.99
67868;SHT31;54672;46.096;14.470;2023-11-22T04:12:31;1.81;99.99
67868;SHT31;54672;46.096;14.470;2023-11-22T04:14:57;1.72;99.99
67868;SHT31;54672;46.096;14.470;2023-11-22T04:17:23;1.72;99.99
67868;SHT31;54672;46.096;14.470;2023-11-22T04:19:48;1.67;99.99
67868;SHT31;54672;46.096;14.470;2023-11-22T04:22:14;1.70;99.99
67868;SHT31;54672;46.096;14.470;2023-11-22T04:24:39;1.72;99.99
67868;SHT31;54672;46.096;14.470;2023-11-22T04:27:05;1.75;99.99
67868;SHT31;54672;46.096;14.470;2023-11-22T04:29:30;1.91;99.99
67868;SHT31;54672;46.096;14.470;2023-11-22T04:31:56;2.01;99.99
67868;SHT31;54672;46.096;14.470;2023-11-22T04:34:21;2.09;99.99
67868;SHT31;54672;46.096;14.470;2023-11-22T04:36:46;2.95;99.99
67868;SHT31;54672;46.096;14.470;2023-11-22T04:39:12;2.88;99.99
67868;SHT31;54672;46.096;14.470;2023-11-22T04:41:38;2.67;99.99
67868;SHT31;54672;46.096;14.470;2023-11-22T04:44:04;2.61;99.99
67868;SHT31;54672;46.096;14.470;2023-11-22T04:46:29;2.50;99.99
67868;SHT31;54672;46.096;14.470;2023-11-22T04:48:55;2.56;99.99
67868;SHT31;54672;46.096;14.470;2023-11-22T04:51:21;2.42;99.99
67868;SHT31;54672;46.096;14.470;2023-11-22T04:53:46;2.34;99.99
67868;SHT31;54672;46.096;14.470;2023-11-22T04:56:11;2.28;99.99
67868;SHT31;54672;46.096;14.470;2023-11-22T04:58:37;2.32;99.99
67868;SHT31;54672;46.096;14.470;2023-11-22T05:01:02;2.34;99.99
67868;SHT31;54672;46.096;14.470;2023-11-22T05:03:28;2.22;99.99
67868;SHT31;54672;46.096;14.470;2023-11-22T05:05:53;2.30;99.99
67868;SHT31;54672;46.096;14.470;2023-11-22T05:08:19;2.40;99.99
67868;SHT31;54672;46.096;14.470;2023-11-22T05:10:44;2.42;99.99
67868;SHT31;54672;46.096;14.470;2023-11-22T05:13:09;2.25;99.99
67868;SHT31;54672;46.096;14.470;2023-11-22T05:15:36;2.28;99.99
67868;SHT31;54672;46.096;14.470;2023-11-22T05:18:01;2.30;99.99
67868;SHT31;54672;46.096;14.470;2023-11-22T05:20:27;2.13;99.99
67868;SHT31;54672;46.096;14.470;2023-11-22T05:22:52;2.08;99.99
67868;SHT31;54672;46.096;14.470;2023-11-22T05:25:18;2.02;99.99
67868;SHT31;54672;46.096;14.470;2023-11-22T05:27:43;2.01;99.99
67868;SHT31;54672;46.096;14.470;2023-11-22T05:30:09;1.92;99.99
67868;SHT31;54672;46.096;14.470;2023-11-22T05:32:36;1.91;99.99
67868;SHT31;54672;46.096;14.470;2023-11-22T05:35:01;1.85;99.99
67868;SHT31;54672;46.096;14.470;2023-11-22T05:37:28;1.86;99.99
67868;SHT31;54672;46.096;14.470;2023-11-22T05:39:54;1.89;99.99
67868;SHT31;54672;46.096;14.470;2023-11-22T05:42:20;1.89;99.99
67868;SHT31;54672;46.096;14.470;2023-11-22T05:44:45;1.86;99.99
67868;SHT31;54672;46.096;14.470;2023-11-22T05:47:11;1.81;99.99
67868;SHT31;54672;46.096;14.470;2023-11-22T05:49:38;1.88;99.99
67868;SHT31;54672;46.096;14.470;2023-11-22T05:52:03;1.85;99.99
67868;SHT31;54672;46.096;14.470;2023-11-22T05:54:29;1.89;99.99
67868;SHT31;54672;46.096;14.470;2023-11-22T05:56:55;1.92;99.99
67868;SHT31;54672;46.096;14.470;2023-11-22T05:59:20;1.97;99.99
67868;SHT31;54672;46.096;14.470;2023-11-22T06:01:46;2.16;99.99
67868;SHT31;54672;46.096;14.470;2023-11-22T06:04:11;2.26;99.99
67868;SHT31;54672;46.096;14.470;2023-11-22T06:06:36;2.30;99.99
67868;SHT31;54672;46.096;14.470;2023-11-22T06:09:02;2.46;99.99
67868;SHT31;54672;46.096;14.470;2023-11-22T06:11:30;2.39;99.99
67868;SHT31;54672;46.096;14.470;2023-11-22T06:13:55;2.22;99.99
67868;SHT31;54672;46.096;14.470;2023-11-22T06:16:22;2.22;99.99
67868;SHT31;54672;46.096;14.470;2023-11-22T06:18:47;2.40;99.99
67868;SHT31;54672;46.096;14.470;2023-11-22T06:21:13;2.22;99.99
67868;SHT31;54672;46.096;14.470;2023-11-22T06:23:38;2.26;99.99
67868;SHT31;54672;46.096;14.470;2023-11-22T06:26:04;2.21;99.99
67868;SHT31;54672;46.096;14.470;2023-11-22T06:28:29;2.40;99.99
67868;SHT31;54672;46.096;14.470;2023-11-22T06:30:54;2.37;99.99
67868;SHT31;54672;46.096;14.470;2023-11-22T06:33:20;2.39;99.99
67868;SHT31;54672;46.096;14.470;2023-11-22T06:35:45;2.36;99.99
67868;SHT31;54672;46.096;14.470;2023-11-22T06:38:11;2.36;99.99
67868;SHT31;54672;46.096;14.470;2023-11-22T06:40:36;2.33;99.99
67868;SHT31;54672;46.096;14.470;2023-11-22T06:43:02;2.36;99.99
67868;SHT31;54672;46.096;14.470;2023-11-22T06:45:29;2.42;99.99
67868;SHT31;54672;46.096;14.470;2023-11-22T06:47:56;2.60;99.99
67868;SHT31;54672;46.096;14.470;2023-11-22T06:50:21;2.97;99.99
67868;SHT31;54672;46.096;14.470;2023-11-22T06:52:47;3.00;99.99
67868;SHT31;54672;46.096;14.470;2023-11-22T06:55:15;3.05;99.99
67868;SHT31;54672;46.096;14.470;2023-11-22T06:57:41;2.92;99.99
67868;SHT31;54672;46.096;14.470;2023-11-22T07:00:07;2.91;99.99
67868;SHT31;54672;46.096;14.470;2023-11-22T07:02:35;2.81;99.99
67868;SHT31;54672;46.096;14.470;2023-11-22T07:05:02;3.22;99.99
67868;SHT31;54672;46.096;14.470;2023-11-22T07:07:37;3.25;99.99
67868;SHT31;54672;46.096;14.470;2023-11-22T07:10:03;3.66;99.99
67868;SHT31;54672;46.096;14.470;2023-11-22T07:12:33;3.74;99.99
67868;SHT31;54672;46.096;14.470;2023-11-22T07:15:00;4.03;99.99
67868;SHT31;54672;46.096;14.470;2023-11-22T07:17:25;3.98;98.83
67868;SHT31;54672;46.096;14.470;2023-11-22T07:19:53;4.03;99.64
67868;SHT31;54672;46.096;14.470;2023-11-22T07:22:19;4.10;98.76
67868;SHT31;54672;46.096;14.470;2023-11-22T07:24:49;4.27;99.54
67868;SHT31;54672;46.096;14.470;2023-11-22T07:27:19;4.20;98.52
67868;SHT31;54672;46.096;14.470;2023-11-22T07:29:46;4.32;96.68
67868;SHT31;54672;46.096;14.470;2023-11-22T07:32:12;4.27;97.95
67868;SHT31;54672;46.096;14.470;2023-11-22T07:34:38;4.37;96.73
67868;SHT31;54672;46.096;14.470;2023-11-22T07:37:05;4.40;96.92
67868;SHT31;54672;46.096;14.470;2023-11-22T07:39:33;4.49;96.92
67868;SHT31;54672;46.096;14.470;2023-11-22T07:41:58;4.53;97.70
67868;SHT31;54672;46.096;14.470;2023-11-22T07:44:23;4.45;98.30
67868;SHT31;54672;46.096;14.470;2023-11-22T07:46:50;4.51;97.10
67868;SHT31;54672;46.096;14.470;2023-11-22T07:49:16;4.59;96.07
67868;SHT31;54672;46.096;14.470;2023-11-22T07:51:43;4.63;95.53
67868;SHT31;54672;46.096;14.470;2023-11-22T07:54:10;4.53;96.13
67868;SHT31;54672;46.096;14.470;2023-11-22T07:56:37;4.20;98.24
67868;SHT31;54672;46.096;14.470;2023-11-22T07:59:02;4.32;98.55
67868;SHT31;54672;46.096;14.470;2023-11-22T08:01:28;4.44;98.09
67868;SHT31;54672;46.096;14.470;2023-11-22T08:03:55;4.48;97.90
67868;SHT31;54672;46.096;14.470;2023-11-22T08:06:21;4.69;97.29
67868;SHT31;54672;46.096;14.470;2023-11-22T08:08:46;4.96;96.38
67868;SHT31;54672;46.096;14.470;2023-11-22T08:11:12;5.72;93.07
67868;SHT31;54672;46.096;14.470;2023-11-22T08:13:44;6.33;90.83
67868;SHT31;54672;46.096;14.470;2023-11-22T08:16:11;6.75;88.96
67868;SHT31;54672;46.096;14.470;2023-11-22T08:18:39;7.16;87.38
67868;SHT31;54672;46.096;14.470;2023-11-22T08:21:04;7.29;86.76
67868;SHT31;54672;46.096;14.470;2023-11-22T08:23:30;7.49;85.71
67868;SHT31;54672;46.096;14.470;2023-11-22T08:26:00;7.53;85.98
67868;SHT31;54672;46.096;14.470;2023-11-22T08:28:26;7.60;85.26
67868;SHT31;54672;46.096;14.470;2023-11-22T08:30:52;7.71;84.55
67868;SHT31;54672;46.096;14.470;2023-11-22T08:33:18;7.76;84.58
67868;SHT31;54672;46.096;14.470;2023-11-22T08:35:43;7.84;84.35
67868;SHT31;54672;46.096;14.470;2023-11-22T08:38:09;7.91;84.13
67868;SHT31;54672;46.096;14.470;2023-11-22T08:40:35;7.95;83.76
67868;SHT31;54672;46.096;14.470;2023-11-22T08:43:05;7.93;83.78
67868;SHT31;54672;46.096;14.470;2023-11-22T08:45:30;8.02;83.18
67868;SHT31;54672;46.096;14.470;2023-11-22T08:47:57;8.07;82.92
67868;SHT31;54672;46.096;14.470;2023-11-22T08:50:22;8.09;82.99
67868;SHT31;54672;46.096;14.470;2023-11-22T08:52:48;8.16;82.99
67868;SHT31;54672;46.096;14.470;2023-11-22T08:55:18;8.22;81.68
67868;SHT31;54672;46.096;14.470;2023-11-22T08:57:47;8.29;81.57
67868;SHT31;54672;46.096;14.470;2023-11-22T09:00:13;8.34;81.45
67868;SHT31;54672;46.096;14.470;2023-11-22T09:02:39;8.32;81.64
67868;SHT31;54672;46.096;14.470;2023-11-22T09:05:06;8.42;80.68
67868;SHT31;54672;46.096;14.470;2023-11-22T09:07:34;8.44;81.18
67868;SHT31;54672;46.096;14.470;2023-11-22T09:10:02;8.49;80.60
67868;SHT31;54672;46.096;14.470;2023-11-22T09:12:38;8.59;80.52
67868;SHT31;54672;46.096;14.470;2023-11-22T09:15:11;8.59;80.33
67868;SHT31;54672;46.096;14.470;2023-11-22T09:17:38;8.70;80.86
67868;SHT31;54672;46.096;14.470;2023-11-22T09:20:12;8.77;79.72
67868;SHT31;54672;46.096;14.470;2023-11-22T09:22:51;8.83;79.59
67868;SHT31;54672;46.096;14.470;2023-11-22T09:25:19;9.06;79.91
67868;SHT31;54672;46.096;14.470;2023-11-22T09:27:46;9.06;79.38
67868;SHT31;54672;46.096;14.470;2023-11-22T09:30:13;9.06;79.64
67868;SHT31;54672;46.096;14.470;2023-11-22T09:33:13;9.20;78.87
67868;SHT31;54672;46.096;14.470;2023-11-22T09:35:43;9.25;78.26
67868;SHT31;54672;46.096;14.470;2023-11-22T09:38:09;9.31;77.72
67868;SHT31;54672;46.096;14.470;2023-11-22T09:40:44;9.44;77.94
67868;SHT31;54672;46.096;14.470;2023-11-22T09:43:12;9.62;77.87
67868;SHT31;54672;46.096;14.470;2023-11-22T09:45:40;9.65;78.14
67868;SHT31;54672;46.096;14.470;2023-11-22T09:48:15;9.75;77.17
67868;SHT31;54672;46.096;14.470;2023-11-22T09:50:57;9.75;77.20
67868;SHT31;54672;46.096;14.470;2023-11-22T09:53:31;9.79;75.93
67868;SHT31;54672;46.096;14.470;2023-11-22T09:55:58;9.83;76.29
67868;SHT31;54672;46.096;14.470;2023-11-22T09:58:24;9.87;76.21
67868;SHT31;54672;46.096;14.470;2023-11-22T10:00:50;9.90;75.80
67868;SHT31;54672;46.096;14.470;2023-11-22T10:03:17;10.13;76.01
67868;SHT31;54672;46.096;14.470;2023-11-22T10:05:43;10.26;75.31
67868;SHT31;54672;46.096;14.470;2023-11-22T10:08:09;10.02;75.37
67868;SHT31;54672;46.096;14.470;2023-11-22T10:10:36;10.10;76.05
67868;SHT31;54672;46.096;14.470;2023-11-22T10:13:02;10.26;74.43
67868;SHT31;54672;46.096;14.470;2023-11-22T10:15:29;10.46;74.85
67868;SHT31;54672;46.096;14.470;2023-11-22T10:17:56;10.50;73.40
67868;SHT31;54672;46.096;14.470;2023-11-22T10:20:35;10.43;73.42
67868;SHT31;54672;46.096;14.470;2023-11-22T10:23:00;10.27;73.32
67868;SHT31;54672;46.096;14.470;2023-11-22T10:25:26;10.10;74.33
67868;SHT31;54672;46.096;14.470;2023-11-22T10:27:52;10.09;73.88
67868;SHT31;54672;46.096;14.470;2023-11-22T10:30:18;10.02;74.65
67868;SHT31;54672;46.096;14.470;2023-11-22T10:32:45;10.06;74.75
67868;SHT31;54672;46.096;14.470;2023-11-22T10:35:11;10.00;73.89
67868;SHT31;54672;46.096;14.470;2023-11-22T10:37:39;10.26;74.79
67868;SHT31;54672;46.096;14.470;2023-11-22T10:40:05;10.40;73.24
67868;SHT31;54672;46.096;14.470;2023-11-22T10:42:33;10.40;73.30
67868;SHT31;54672;46.096;14.470;2023-11-22T10:45:00;10.30;72.64
67868;SHT31;54672;46.096;14.470;2023-11-22T10:47:29;10.38;72.88
67868;SHT31;54672;46.096;14.470;2023-11-22T10:49:55;10.37;73.64
67868;SHT31;54672;46.096;14.470;2023-11-22T10:52:26;10.34;73.25
67868;SHT31;54672;46.096;14.470;2023-11-22T10:54:57;10.40;74.11
67868;SHT31;54672;46.096;14.470;2023-11-22T10:57:26;10.54;73.67
67868;SHT31;54672;46.096;14.470;2023-11-22T10:59:54;10.41;73.48
67868;SHT31;54672;46.096;14.470;2023-11-22T11:02:21;10.36;73.53
67868;SHT31;54672;46.096;14.470;2023-11-22T11:04:58;10.30;73.52
67868;SHT31;54672;46.096;14.470;2023-11-22T11:07:28;10.41;73.17
67868;SHT31;54672;46.096;14.470;2023-11-22T11:09:56;10.54;72.71
67868;SHT31;54672;46.096;14.470;2023-11-22T11:12:23;10.61;71.77
67868;SHT31;54672;46.096;14.470;2023-11-22T11:14:50;10.77;72.59
67868;SHT31;54672;46.096;14.470;2023-11-22T11:17:16;10.85;72.17
67868;SHT31;54672;46.096;14.470;2023-11-22T11:19:42;10.61;71.35
67868;SHT31;54672;46.096;14.470;2023-11-22T11:22:08;10.51;70.34
67868;SHT31;54672;46.096;14.470;2023-11-22T11:24:41;10.60;71.15
67868;SHT31;54672;46.096;14.470;2023-11-22T11:27:10;10.68;70.68
67868;SHT31;54672;46.096;14.470;2023-11-22T11:29:36;10.75;70.76
67868;SHT31;54672;46.096;14.470;2023-11-22T11:32:15;10.72;71.15
67868;SHT31;54672;46.096;14.470;2023-11-22T11:34:57;10.67;69.84
67868;SHT31;54672;46.096;14.470;2023-11-22T11:37:25;10.68;69.66
67868;SHT31;54672;46.096;14.470;2023-11-22T11:39:51;10.82;70.63
67868;SHT31;54672;46.096;14.470;2023-11-22T11:42:16;10.81;68.93
67868;SHT31;54672;46.096;14.470;2023-11-22T11:45:04;10.88;69.54
67868;SHT31;54672;46.096;14.470;2023-11-22T11:47:33;10.95;68.71
67868;SHT31;54672;46.096;14.470;2023-11-22T11:49:59;10.99;67.92
67868;SHT31;54672;46.096;14.470;2023-11-22T11:52:27;11.02;68.32
67868;SHT31;54672;46.096;14.470;2023-11-22T11:54:53;10.95;67.00
67868;SHT31;54672;46.096;14.470;2023-11-22T11:57:18;10.85;66.98
67868;SHT31;54672;46.096;14.470;2023-11-22T11:59:44;10.94;68.07
67868;SHT31;54672;46.096;14.470;2023-11-22T12:02:11;10.91;67.10
67868;SHT31;54672;46.096;14.470;2023-11-22T12:04:37;10.92;67.93
67868;SHT31;54672;46.096;14.470;2023-11-22T12:07:02;10.92;68.12
67868;SHT31;54672;46.096;14.470;2023-11-22T12:09:28;10.88;68.39
67868;SHT31;54672;46.096;14.470;2023-11-22T12:11:56;10.98;68.60
67868;SHT31;54672;46.096;14.470;2023-11-22T12:14:26;10.94;68.11
67868;SHT31;54672;46.096;14.470;2023-11-22T12:16:52;10.94;68.85
67868;SHT31;54672;46.096;14.470;2023-11-22T12:19:24;11.05;68.42
67868;SHT31;54672;46.096;14.470;2023-11-22T12:21:51;11.08;68.26
67868;SHT31;54672;46.096;14.470;2023-11-22T12:24:16;10.99;66.54
67868;SHT31;54672;46.096;14.470;2023-11-22T12:26:46;11.05;66.93
67868;SHT31;54672;46.096;14.470;2023-11-22T12:29:12;10.96;66.18
67868;SHT31;54672;46.096;14.470;2023-11-22T12:31:49;10.94;66.23
67868;SHT31;54672;46.096;14.470;2023-11-22T12:34:20;10.99;67.25
67868;SHT31;54672;46.096;14.470;2023-11-22T12:36:46;11.04;65.46
67868;SHT31;54672;46.096;14.470;2023-11-22T12:39:12;11.11;66.18
67868;SHT31;54672;46.096;14.470;2023-11-22T12:41:52;11.11;66.45
67868;SHT31;54672;46.096;14.470;2023-11-22T12:44:18;11.16;66.77
67868;SHT31;54672;46.096;14.470;2023-11-22T12:46:52;11.11;65.75
67868;SHT31;54672;46.096;14.470;2023-11-22T12:49:46;11.15;65.75
67868;SHT31;54672;46.096;14.470;2023-11-22T12:52:11;11.15;66.32
67868;SHT31;54672;46.096;14.470;2023-11-22T12:54:37;11.08;65.65
67868;SHT31;54672;46.096;14.470;2023-11-22T12:57:03;10.98;66.70
67868;SHT31;54672;46.096;14.470;2023-11-22T12:59:35;10.92;66.56
67868;SHT31;54672;46.096;14.470;2023-11-22T13:02:00;10.92;67.25
67868;SHT31;54672;46.096;14.470;2023-11-22T13:04:26;10.91;67.77
67868;SHT31;54672;46.096;14.470;2023-11-22T13:06:51;10.92;66.93
67868;SHT31;54672;46.096;14.470;2023-11-22T13:09:17;10.96;67.76
67868;SHT31;54672;46.096;14.470;2023-11-22T13:11:43;10.88;67.12
67868;SHT31;54672;46.096;14.470;2023-11-22T13:14:09;10.85;68.15
67868;SHT31;54672;46.096;14.470;2023-11-22T13:16:34;10.75;67.47
67868;SHT31;54672;46.096;14.470;2023-11-22T13:19:02;10.72;68.01
67868;SHT31;54672;46.096;14.470;2023-11-22T13:21:27;10.71;68.12
67868;SHT31;54672;46.096;14.470;2023-11-22T13:23:52;10.68;67.43
67868;SHT31;54672;46.096;14.470;2023-11-22T13:26:18;10.65;67.34
67868;SHT31;54672;46.096;14.470;2023-11-22T13:28:43;10.72;68.14
67868;SHT31;54672;46.096;14.470;2023-11-22T13:31:10;10.71;67.43
67868;SHT31;54672;46.096;14.470;2023-11-22T13:33:37;10.67;67.40
67868;SHT31;54672;46.096;14.470;2023-11-22T13:36:04;10.63;67.73
67868;SHT31;54672;46.096;14.470;2023-11-22T13:38:30;10.64;68.14
67868;SHT31;54672;46.096;14.470;2023-11-22T13:40:55;10.65;67.84
67868;SHT31;54672;46.096;14.470;2023-11-22T13:43:21;10.60;67.43
67868;SHT31;54672;46.096;14.470;2023-11-22T13:45:46;10.61;67.87
67868;SHT31;54672;46.096;14.470;2023-11-22T13:48:11;10.58;68.30
67868;SHT31;54672;46.096;14.470;2023-11-22T13:50:37;10.51;67.94
67868;SHT31;54672;46.096;14.470;2023-11-22T13:53:03;10.54;67.93
67868;SHT31;54672;46.096;14.470;2023-11-22T13:55:30;10.48;67.61
67868;SHT31;54672;46.096;14.470;2023-11-22T13:57:57;10.47;67.60
67868;SHT31;54672;46.096;14.470;2023-11-22T14:00:24;10.48;67.83
67868;SHT31;54672;46.096;14.470;2023-11-22T14:02:56;10.47;68.28
67868;SHT31;54672;46.096;14.470;2023-11-22T14:05:26;10.37;68.54
67868;SHT31;54672;46.096;14.470;2023-11-22T14:07:52;10.38;67.95
67868;SHT31;54672;46.096;14.470;2023-11-22T14:10:18;10.33;68.50
67868;SHT31;54672;46.096;14.470;2023-11-22T14:12:45;10.30;68.39
67868;SHT31;54672;46.096;14.470;2023-11-22T14:15:11;10.20;69.12
67868;SHT31;54672;46.096;14.470;2023-11-22T14:17:37;10.18;68.48
67868;SHT31;54672;46.096;14.470;2023-11-22T14:20:15;10.17;68.97
67868;SHT31;54672;46.096;14.470;2023-11-22T14:22:41;10.13;68.83
67868;SHT31;54672;46.096;14.470;2023-11-22T14:25:10;10.09;69.35
67868;SHT31;54672;46.096;14.470;2023-11-22T14:27:41;10.03;69.75
67868;SHT31;54672;46.096;14.470;2023-11-22T14:30:08;9.99;69.23
67868;SHT31;54672;46.096;14.470;2023-11-22T14:32:35;10.03;69.23
67868;SHT31;54672;46.096;14.470;2023-11-22T14:35:04;9.95;70.03
67868;SHT31;54672;46.096;14.470;2023-11-22T14:37:30;9.87;70.06
67868;SHT31;54672;46.096;14.470;2023-11-22T14:39:56;9.83;70.25
67868;SHT31;54672;46.096;14.470;2023-11-22T14:42:22;9.76;70.89
67868;SHT31;54672;46.096;14.470;2023-11-22T14:44:51;9.76;70.43
67868;SHT31;54672;46.096;14.470;2023-11-22T14:47:17;9.78;70.22
67868;SHT31;54672;46.096;14.470;2023-11-22T14:49:50;9.75;70.36
67868;SHT31;54672;46.096;14.470;2023-11-22T14:52:16;9.66;70.73
67868;SHT31;54672;46.096;14.470;2023-11-22T14:54:42;9.75;70.03
67868;SHT31;54672;46.096;14.470;2023-11-22T14:57:09;9.62;70.88
67868;SHT31;54672;46.096;14.470;2023-11-22T14:59:35;9.59;70.64
67868;SHT31;54672;46.096;14.470;2023-11-22T15:02:03;9.55;70.97
67868;SHT31;54672;46.096;14.470;2023-11-22T15:04:31;9.44;71.79
67868;SHT31;54672;46.096;14.470;2023-11-22T15:06:58;9.35;72.10
67868;SHT31;54672;46.096;14.470;2023-11-22T15:09:23;9.25;72.57
67868;SHT31;54672;46.096;14.470;2023-11-22T15:11:49;9.20;72.65
67868;SHT31;54672;46.096;14.470;2023-11-22T15:14:14;9.21;72.85
67868;SHT31;54672;46.096;14.470;2023-11-22T15:16:40;9.20;72.89
67868;SHT31;54672;46.096;14.470;2023-11-22T15:19:05;9.11;73.13
67868;SHT31;54672;46.096;14.470;2023-11-22T15:21:32;9.14;73.09
67868;SHT31;54672;46.096;14.470;2023-11-22T15:23:59;9.10;73.34
67868;SHT31;54672;46.096;14.470;2023-11-22T15:26:24;9.03;73.58